createdAt,value
2023-03-04T00:00:35.148Z,95440.44
2023-03-04T00:03:03.067Z,95445.59
2023-03-04T00:05:31.370Z,95441.41
2023-03-04T00:07:59.265Z,95444.69
2023-03-04T00:10:27.237Z,95441.47
2023-03-04T00:12:55.158Z,95442.03
2023-03-04T00:15:24.470Z,95439.97
2023-03-04T00:17:52.376Z,95443.00
2023-03-04T00:20:20.400Z,95450.59
2023-03-04T00:22:48.346Z,95448.00
2023-03-04T00:25:16.494Z,95445.78
2023-03-04T00:27:44.415Z,95439.34
2023-03-04T00:30:13.036Z,95440.97
2023-03-04T00:32:42.345Z,95448.16
2023-03-04T00:35:10.722Z,95446.50
2023-03-04T00:37:38.630Z,95448.78
2023-03-04T00:40:07.695Z,95443.91
2023-03-04T00:42:35.584Z,95449.25
2023-03-04T00:45:03.555Z,95447.31
2023-03-04T00:47:31.482Z,95444.72
2023-03-04T00:50:00.796Z,95450.16
2023-03-04T00:52:28.964Z,95449.16
2023-03-04T00:54:56.913Z,95448.63
2023-03-04T00:57:24.790Z,95442.19
2023-03-04T00:59:52.702Z,95445.03
2023-03-04T01:02:20.624Z,95450.50
2023-03-04T01:04:48.561Z,95455.50
2023-03-04T01:07:18.204Z,95452.75
2023-03-04T01:09:46.180Z,95444.00
2023-03-04T01:12:14.141Z,95445.16
2023-03-04T01:14:42.033Z,95438.81
2023-03-04T01:17:09.984Z,95441.16
2023-03-04T01:19:37.992Z,95435.00
2023-03-04T01:22:05.907Z,95434.44
2023-03-04T01:24:35.232Z,95433.66
2023-03-04T01:27:03.257Z,95429.47
2023-03-04T01:29:31.175Z,95429.91
2023-03-04T01:31:59.079Z,95428.84
2023-03-04T01:34:27.177Z,95424.91
2023-03-04T01:36:55.088Z,95423.47
2023-03-04T01:39:23.870Z,95417.06
2023-03-04T01:41:54.019Z,95420.63
2023-03-04T01:44:22.020Z,95413.50
2023-03-04T01:46:54.057Z,95411.19
2023-03-04T01:49:22.557Z,95416.28
2023-03-04T01:51:53.466Z,95410.13
2023-03-04T01:54:23.013Z,95411.34
2023-03-04T01:56:54.328Z,95410.00
2023-03-04T01:59:23.993Z,95410.81
2023-03-04T02:01:54.555Z,95405.81
2023-03-04T02:04:24.869Z,95405.44
2023-03-04T02:06:54.164Z,95392.34
2023-03-04T02:09:22.674Z,95405.44
2023-03-04T02:11:51.838Z,95397.69
2023-03-04T02:14:22.197Z,95397.06
2023-03-04T02:16:50.834Z,95396.72
2023-03-04T02:19:27.864Z,95396.72
2023-03-04T02:21:57.958Z,95389.56
2023-03-04T02:24:31.792Z,95386.00
2023-03-04T02:27:01.109Z,95389.56
2023-03-04T02:29:29.968Z,95388.94
2023-03-04T02:31:58.137Z,95387.16
2023-03-04T02:34:30.219Z,95396.34
2023-03-04T02:36:58.848Z,95381.63
2023-03-04T02:39:33.006Z,95386.63
2023-03-04T02:42:03.842Z,95399.03
2023-03-04T02:44:35.715Z,95390.13
2023-03-04T02:47:05.116Z,95381.56
2023-03-04T02:49:35.489Z,95386.84
2023-03-04T02:52:07.086Z,95390.50
2023-03-04T02:54:35.105Z,95391.03
2023-03-04T02:57:07.802Z,95381.91
2023-03-04T02:59:38.524Z,95379.94
2023-03-04T03:02:08.109Z,95390.13
2023-03-04T03:04:37.891Z,95387.97
2023-03-04T03:07:09.823Z,95383.16
2023-03-04T03:09:38.056Z,95381.56
2023-03-04T03:12:07.820Z,95382.91
2023-03-04T03:14:35.930Z,95377.81
2023-03-04T03:17:05.574Z,95378.03
2023-03-04T03:19:33.570Z,95370.28
2023-03-04T03:22:05.022Z,95374.97
2023-03-04T03:24:33.447Z,95372.63
2023-03-04T03:27:01.349Z,95366.78
2023-03-04T03:29:30.854Z,95369.97
2023-03-04T03:31:59.905Z,95372.31
2023-03-04T03:34:27.906Z,95371.41
2023-03-04T03:36:55.830Z,95372.56
2023-03-04T03:39:23.757Z,95375.97
2023-03-04T03:41:51.736Z,95381.19
2023-03-04T03:44:19.642Z,95383.34
2023-03-04T03:46:48.968Z,95382.97
2023-03-04T03:49:17.238Z,95377.81
2023-03-04T03:51:45.159Z,95373.91
2023-03-04T03:54:13.152Z,95387.63
2023-03-04T03:56:41.082Z,95385.22
2023-03-04T03:59:09.200Z,95386.13
2023-03-04T04:01:37.311Z,95380.97
2023-03-04T04:04:06.904Z,95387.47
2023-03-04T04:06:34.853Z,95386.41
2023-03-04T04:09:02.763Z,95384.69
2023-03-04T04:11:30.682Z,95384.94
2023-03-04T04:13:58.659Z,95387.16
2023-03-04T04:16:26.601Z,95380.69
2023-03-04T04:18:54.560Z,95381.91
2023-03-04T04:21:23.961Z,95376.75
2023-03-04T04:23:51.927Z,95376.75
2023-03-04T04:26:19.820Z,95386.56
2023-03-04T04:28:47.710Z,95392.91
2023-03-04T04:31:15.664Z,95389.69
2023-03-04T04:33:43.606Z,95392.25
2023-03-04T04:36:15.509Z,95388.00
2023-03-04T04:38:45.820Z,95391.72
2023-03-04T04:41:20.916Z,95394.50
2023-03-04T04:43:49.240Z,95393.00
2023-03-04T04:46:17.525Z,95391.84
2023-03-04T04:48:45.832Z,95393.25
2023-03-04T04:51:14.685Z,95399.03
2023-03-04T04:53:44.796Z,95401.00
2023-03-04T04:56:13.850Z,95402.25
2023-03-04T04:58:42.448Z,95396.28
2023-03-04T05:01:11.031Z,95393.94
2023-03-04T05:03:40.155Z,95391.72
2023-03-04T05:06:11.163Z,95389.25
2023-03-04T05:08:39.826Z,95380.50
2023-03-04T05:11:10.455Z,95390.50
2023-03-04T05:13:38.575Z,95388.53
2023-03-04T05:16:07.400Z,95386.84
2023-03-04T05:18:35.577Z,95378.09
2023-03-04T05:21:05.371Z,95385.94
2023-03-04T05:23:35.296Z,95379.22
2023-03-04T05:26:04.021Z,95380.03
2023-03-04T05:28:33.518Z,95379.22
2023-03-04T05:31:01.894Z,95383.16
2023-03-04T05:33:30.436Z,95383.53
2023-03-04T05:35:58.623Z,95388.34
2023-03-04T05:38:27.006Z,95384.75
2023-03-04T05:40:59.390Z,95377.00
2023-03-04T05:43:27.964Z,95375.22
2023-03-04T05:45:57.442Z,95377.06
2023-03-04T05:48:25.805Z,95385.56
2023-03-04T05:50:57.356Z,95386.72
2023-03-04T05:53:25.467Z,95388.78
2023-03-04T05:55:53.492Z,95393.25
2023-03-04T05:58:22.091Z,95390.38
2023-03-04T06:00:50.227Z,95393.13
2023-03-04T06:03:22.030Z,95390.75
2023-03-04T06:05:49.985Z,95396.47
2023-03-04T06:08:17.904Z,95398.69
2023-03-04T06:10:45.833Z,95390.66
2023-03-04T06:13:14.563Z,95388.34
2023-03-04T06:15:42.516Z,95388.06
2023-03-04T06:18:10.585Z,95390.47
2023-03-04T06:20:39.911Z,95394.03
2023-03-04T06:23:07.827Z,95396.09
2023-03-04T06:25:35.780Z,95403.47
2023-03-04T06:28:03.730Z,95407.06
2023-03-04T06:30:31.723Z,95401.72
2023-03-04T06:32:59.729Z,95406.00
2023-03-04T06:35:28.590Z,95407.97
2023-03-04T06:37:57.894Z,95410.03
2023-03-04T06:40:26.034Z,95407.44
2023-03-04T06:42:53.972Z,95408.69
2023-03-04T06:45:21.961Z,95418.75
2023-03-04T06:47:49.876Z,95416.34
2023-03-04T06:50:17.936Z,95423.47
2023-03-04T06:52:45.879Z,95423.47
2023-03-04T06:55:15.155Z,95419.09
2023-03-04T06:57:43.069Z,95417.94
2023-03-04T07:00:12.245Z,95422.69
2023-03-04T07:02:40.115Z,95427.03
2023-03-04T07:05:08.797Z,95436.31
2023-03-04T07:07:36.806Z,95432.66
2023-03-04T07:10:05.630Z,95441.75
2023-03-04T07:12:34.986Z,95440.25
2023-03-04T07:15:02.971Z,95441.03
2023-03-04T07:17:30.977Z,95441.94
2023-03-04T07:19:58.916Z,95443.72
2023-03-04T07:22:26.920Z,95445.31
2023-03-04T07:24:54.873Z,95447.72
2023-03-04T07:27:22.777Z,95455.03
2023-03-04T07:29:52.033Z,95445.66
2023-03-04T07:32:20.053Z,95450.38
2023-03-04T07:34:48.008Z,95454.00
2023-03-04T07:37:15.972Z,95448.34
2023-03-04T07:39:43.889Z,95454.78
2023-03-04T07:42:11.949Z,95452.09
2023-03-04T07:44:42.556Z,95446.53
2023-03-04T07:47:11.843Z,95458.88
2023-03-04T07:49:39.745Z,95460.47
2023-03-04T07:52:08.858Z,95464.66
2023-03-04T07:54:36.806Z,95458.88
2023-03-04T07:57:04.885Z,95467.63
2023-03-04T07:59:32.934Z,95464.38
2023-03-04T08:02:00.846Z,95468.94
2023-03-04T08:04:30.221Z,95463.59
2023-03-04T08:06:58.199Z,95480.81
2023-03-04T08:09:26.199Z,95475.72
2023-03-04T08:11:54.168Z,95483.16
2023-03-04T08:14:22.211Z,95482.09
2023-03-04T08:16:50.096Z,95484.13
2023-03-04T08:19:18.044Z,95477.38
2023-03-04T08:21:47.377Z,95482.56
2023-03-04T08:24:15.359Z,95479.25
2023-03-04T08:26:45.569Z,95482.72
2023-03-04T08:29:16.136Z,95485.19
2023-03-04T08:31:48.562Z,95493.59
2023-03-04T08:34:17.678Z,95492.00
2023-03-04T08:36:46.982Z,95495.91
2023-03-04T08:39:17.648Z,95489.13
2023-03-04T08:41:46.638Z,95494.31
2023-03-04T08:44:14.840Z,95489.56
2023-03-04T08:46:43.846Z,95491.25
2023-03-04T08:49:12.956Z,95496.06
2023-03-04T08:51:41.173Z,95492.09
2023-03-04T08:54:10.465Z,95499.31
2023-03-04T08:56:38.391Z,95494.00
2023-03-04T08:59:06.288Z,95498.63
2023-03-04T09:01:34.348Z,95499.25
2023-03-04T09:04:02.252Z,95499.25
2023-03-04T09:06:30.195Z,95498.78
2023-03-04T09:08:58.148Z,95491.84
2023-03-04T09:11:27.396Z,95488.06
2023-03-04T09:13:55.333Z,95499.84
2023-03-04T09:16:23.595Z,95491.00
2023-03-04T09:18:51.572Z,95498.22
2023-03-04T09:21:19.452Z,95504.31
2023-03-04T09:23:47.409Z,95499.97
2023-03-04T09:26:17.347Z,95502.41
2023-03-04T09:28:46.609Z,95498.44
2023-03-04T09:31:15.657Z,95501.91
2023-03-04T09:33:43.603Z,95492.16
2023-03-04T09:36:12.822Z,95496.56
2023-03-04T09:38:41.137Z,95500.16
2023-03-04T09:41:11.567Z,95496.94
2023-03-04T09:43:41.110Z,95499.56
2023-03-04T09:46:16.011Z,95501.75
2023-03-04T09:48:46.409Z,95504.97
2023-03-04T09:51:22.351Z,95491.00
2023-03-04T09:54:00.049Z,95494.19
2023-03-04T09:56:29.261Z,95498.59
2023-03-04T09:59:05.006Z,95491.00
2023-03-04T10:01:38.023Z,95500.53
2023-03-04T10:04:14.293Z,95493.94
2023-03-04T10:06:43.391Z,95485.59
2023-03-04T10:09:15.354Z,95484.88
2023-03-04T10:11:46.628Z,95488.47
2023-03-04T10:14:39.476Z,95482.88
2023-03-04T10:17:15.489Z,95491.66
2023-03-04T10:19:54.185Z,95479.25
2023-03-04T10:22:30.022Z,95482.16
2023-03-04T10:25:00.403Z,95476.69
2023-03-04T10:27:30.261Z,95480.31
2023-03-04T10:30:01.696Z,95470.75
2023-03-04T10:32:31.000Z,95473.63
2023-03-04T10:34:59.066Z,95465.84
2023-03-04T10:37:45.124Z,95468.44
2023-03-04T10:40:20.982Z,95461.16
2023-03-04T10:42:50.976Z,95466.72
2023-03-04T10:45:24.610Z,95462.06
2023-03-04T10:47:58.787Z,95467.13
2023-03-04T10:50:29.218Z,95470.16
2023-03-04T10:52:58.130Z,95463.34
2023-03-04T10:55:28.928Z,95460.63
2023-03-04T10:58:03.080Z,95467.50
2023-03-04T11:00:33.411Z,95458.34
2023-03-04T11:03:29.429Z,95453.97
2023-03-04T11:06:11.822Z,95461.97
2023-03-04T11:08:41.416Z,95462.84
2023-03-04T11:11:23.784Z,95458.84
2023-03-04T11:13:54.400Z,95464.22
2023-03-04T11:16:28.545Z,95457.44
2023-03-04T11:19:01.643Z,95455.66
2023-03-04T11:21:33.238Z,95452.50
2023-03-04T11:24:03.023Z,95458.94
2023-03-04T11:26:35.007Z,95450.13
2023-03-04T11:29:09.534Z,95449.97
2023-03-04T11:31:41.649Z,95446.97
2023-03-04T11:34:19.125Z,95441.00
2023-03-04T11:36:57.221Z,95433.81
2023-03-04T11:39:31.410Z,95426.66
2023-03-04T11:42:03.971Z,95426.63
2023-03-04T11:44:32.175Z,95429.78
2023-03-04T11:47:36.169Z,95418.13
2023-03-04T11:50:36.233Z,95427.69
2023-03-04T11:53:25.041Z,95417.97
2023-03-04T11:56:04.066Z,95416.63
2023-03-04T11:59:05.800Z,95408.25
2023-03-04T12:01:43.298Z,95408.69
2023-03-04T12:04:30.821Z,95416.88
2023-03-04T12:07:13.626Z,95412.69
2023-03-04T12:09:49.131Z,95413.13
2023-03-04T12:12:34.286Z,95407.94
2023-03-04T12:15:14.529Z,95417.09
2023-03-04T12:18:01.348Z,95402.25
2023-03-04T12:20:41.858Z,95403.53
2023-03-04T12:23:26.005Z,95395.56
2023-03-04T12:26:01.752Z,95388.72
2023-03-04T12:28:52.296Z,95387.53
2023-03-04T12:31:34.393Z,95386.31
2023-03-04T12:34:20.987Z,95376.69
2023-03-04T12:36:56.103Z,95380.84
2023-03-04T12:39:33.477Z,95374.34
2023-03-04T12:42:11.697Z,95367.50
2023-03-04T12:44:47.487Z,95360.34
2023-03-04T12:47:28.768Z,95356.31
2023-03-04T12:50:21.449Z,95357.03
2023-03-04T12:52:59.325Z,95353.81
2023-03-04T12:55:36.485Z,95352.63
2023-03-04T12:58:05.165Z,95343.03
2023-03-04T13:00:43.137Z,95343.88
2023-03-04T13:03:16.889Z,95346.66
2023-03-04T13:05:57.300Z,95336.09
2023-03-04T13:08:36.629Z,95337.47
2023-03-04T13:11:43.649Z,95331.00
2023-03-04T13:14:31.616Z,95318.47
2023-03-04T13:17:01.957Z,95314.19
2023-03-04T13:19:51.438Z,95306.22
2023-03-04T13:22:44.232Z,95309.59
2023-03-04T13:25:41.833Z,95300.41
2023-03-04T13:28:26.121Z,95298.81
2023-03-04T13:31:20.128Z,95296.31
2023-03-04T13:34:08.106Z,95303.38
2023-03-04T13:36:55.935Z,95293.16
2023-03-04T13:39:32.794Z,95296.34
2023-03-04T13:42:01.434Z,95297.16
2023-03-04T13:44:58.687Z,95302.50
2023-03-04T13:47:48.364Z,95297.22
2023-03-04T13:50:31.761Z,95289.53
2023-03-04T13:53:21.187Z,95286.19
2023-03-04T13:56:06.711Z,95288.66
2023-03-04T13:58:35.246Z,95284.19
2023-03-04T14:01:06.932Z,95288.13
2023-03-04T14:03:36.670Z,95280.56
2023-03-04T14:06:18.982Z,95279.97
2023-03-04T14:08:47.890Z,95284.94
2023-03-04T14:11:18.367Z,95276.78
2023-03-04T14:13:46.553Z,95268.06
2023-03-04T14:16:21.711Z,95263.59
2023-03-04T14:18:59.381Z,95264.69
2023-03-04T14:21:27.548Z,95263.41
2023-03-04T14:24:03.794Z,95246.19
2023-03-04T14:26:31.977Z,95249.72
2023-03-04T14:29:02.712Z,95249.97
2023-03-04T14:31:35.604Z,95240.94
2023-03-04T14:34:04.430Z,95238.81
2023-03-04T14:36:34.600Z,95233.59
2023-03-04T14:39:06.856Z,95231.78
2023-03-04T14:41:36.767Z,95224.88
2023-03-04T14:44:15.246Z,95229.84
2023-03-04T14:47:04.678Z,95232.69
2023-03-04T14:49:36.864Z,95223.56
2023-03-04T14:52:05.078Z,95219.50
2023-03-04T14:54:37.042Z,95224.25
2023-03-04T14:57:24.133Z,95217.69
2023-03-04T14:59:53.097Z,95212.66
2023-03-04T15:02:31.177Z,95222.25
2023-03-04T15:05:01.298Z,95210.41
2023-03-04T15:07:34.629Z,95219.94
2023-03-04T15:10:04.623Z,95221.31
2023-03-04T15:12:35.485Z,95213.47
2023-03-04T15:15:06.417Z,95211.31
2023-03-04T15:17:38.833Z,95204.69
2023-03-04T15:20:26.922Z,95204.38
2023-03-04T15:23:03.580Z,95203.44
2023-03-04T15:25:32.139Z,95201.72
2023-03-04T15:28:02.611Z,95197.97
2023-03-04T15:30:33.296Z,95199.66
2023-03-04T15:33:02.623Z,95196.97
2023-03-04T15:35:33.049Z,95203.09
2023-03-04T15:38:01.523Z,95199.47
2023-03-04T15:40:32.597Z,95197.88
2023-03-04T15:43:02.969Z,95194.34
2023-03-04T15:45:35.997Z,95197.59
2023-03-04T15:48:07.962Z,95196.19
2023-03-04T15:50:38.551Z,95192.84
2023-03-04T15:53:09.610Z,95191.56
2023-03-04T15:55:38.196Z,95189.66
2023-03-04T15:58:07.481Z,95193.72
2023-03-04T16:00:35.413Z,95182.13
2023-03-04T16:03:03.347Z,95190.41
2023-03-04T16:05:32.991Z,95188.66
2023-03-04T16:08:00.923Z,95185.06
2023-03-04T16:10:31.140Z,95191.94
2023-03-04T16:12:59.444Z,95187.63
2023-03-04T16:15:29.273Z,95194.84
2023-03-04T16:17:58.013Z,95188.63
2023-03-04T16:20:30.113Z,95195.13
2023-03-04T16:23:01.490Z,95193.09
2023-03-04T16:25:31.065Z,95193.19
2023-03-04T16:28:04.004Z,95188.16
2023-03-04T16:30:32.909Z,95194.59
2023-03-04T16:33:00.822Z,95195.25
2023-03-04T16:35:29.689Z,95184.78
2023-03-04T16:37:59.107Z,95190.00
2023-03-04T16:40:29.316Z,95188.84
2023-03-04T16:42:57.342Z,95189.31
2023-03-04T16:45:30.214Z,95190.19
2023-03-04T16:47:58.167Z,95200.72
2023-03-04T16:50:30.053Z,95200.19
2023-03-04T16:52:59.348Z,95199.00
2023-03-04T16:55:28.751Z,95203.16
2023-03-04T16:57:57.850Z,95197.59
2023-03-04T17:00:28.485Z,95194.03
2023-03-04T17:02:58.865Z,95197.75
2023-03-04T17:05:29.251Z,95193.81
2023-03-04T17:07:57.311Z,95202.25
2023-03-04T17:10:27.214Z,95199.50
2023-03-04T17:12:55.651Z,95201.56
2023-03-04T17:15:23.598Z,95210.75
2023-03-04T17:17:52.657Z,95204.72
2023-03-04T17:20:20.795Z,95211.91
2023-03-04T17:22:48.708Z,95215.53
2023-03-04T17:25:17.339Z,95203.56
2023-03-04T17:27:46.662Z,95214.34
2023-03-04T17:30:15.568Z,95214.34
2023-03-04T17:32:43.561Z,95218.91
2023-03-04T17:35:12.497Z,95214.53
2023-03-04T17:37:40.678Z,95218.13
2023-03-04T17:40:14.035Z,95215.56
2023-03-04T17:42:42.471Z,95219.56
2023-03-04T17:45:12.767Z,95216.81
2023-03-04T17:47:40.683Z,95215.41
2023-03-04T17:50:10.097Z,95214.41
2023-03-04T17:52:38.204Z,95214.41
2023-03-04T17:55:07.030Z,95212.81
2023-03-04T17:57:37.134Z,95216.44
2023-03-04T18:00:06.944Z,95222.81
2023-03-04T18:02:36.323Z,95222.81
2023-03-04T18:05:07.416Z,95227.22
2023-03-04T18:07:35.339Z,95224.41
2023-03-04T18:10:03.282Z,95223.59
2023-03-04T18:12:31.227Z,95226.78
2023-03-04T18:14:59.206Z,95232.41
2023-03-04T18:17:27.681Z,95224.00
2023-03-04T18:19:57.246Z,95224.81
2023-03-04T18:22:25.140Z,95228.78
2023-03-04T18:24:53.062Z,95232.00
2023-03-04T18:27:20.985Z,95227.59
2023-03-04T18:29:48.916Z,95242.00
2023-03-04T18:32:16.871Z,95240.78
2023-03-04T18:34:44.785Z,95240.78
2023-03-04T18:37:14.116Z,95240.00
2023-03-04T18:39:42.046Z,95241.19
2023-03-04T18:42:09.933Z,95239.59
2023-03-04T18:44:37.849Z,95239.41
2023-03-04T18:47:06.904Z,95235.19
2023-03-04T18:49:35.405Z,95237.19
2023-03-04T18:52:03.321Z,95230.38
2023-03-04T18:54:32.579Z,95234.00
2023-03-04T18:57:03.460Z,95233.56
2023-03-04T18:59:37.076Z,95226.78
2023-03-04T19:02:10.812Z,95230.38
2023-03-04T19:04:38.739Z,95224.78
2023-03-04T19:07:06.591Z,95223.75
2023-03-04T19:09:35.859Z,95226.72
2023-03-04T19:12:05.923Z,95225.53
2023-03-04T19:14:33.979Z,95225.94
2023-03-04T19:17:01.869Z,95229.72
2023-03-04T19:19:29.782Z,95228.13
2023-03-04T19:21:58.391Z,95228.31
2023-03-04T19:24:26.445Z,95224.69
2023-03-04T19:26:55.770Z,95227.47
2023-03-04T19:29:23.658Z,95238.56
2023-03-04T19:31:51.548Z,95227.81
2023-03-04T19:34:19.444Z,95236.25
2023-03-04T19:36:47.363Z,95233.06
2023-03-04T19:39:15.727Z,95232.66
2023-03-04T19:41:44.182Z,95234.31
2023-03-04T19:44:13.484Z,95231.47
2023-03-04T19:46:41.468Z,95232.25
2023-03-04T19:49:10.309Z,95229.47
2023-03-04T19:51:38.304Z,95230.84
2023-03-04T19:54:06.271Z,95231.41
2023-03-04T19:56:34.197Z,95239.78
2023-03-04T19:59:02.545Z,95230.19
2023-03-04T20:01:33.808Z,95227.19
2023-03-04T20:04:03.863Z,95226.94
2023-03-04T20:06:31.924Z,95229.69
2023-03-04T20:09:01.838Z,95229.47
2023-03-04T20:11:31.190Z,95222.47
2023-03-04T20:13:59.754Z,95226.06
2023-03-04T20:16:28.742Z,95227.66
2023-03-04T20:18:58.936Z,95234.81
2023-03-04T20:21:27.248Z,95237.59
2023-03-04T20:23:55.319Z,95240.38
2023-03-04T20:26:23.730Z,95243.97
2023-03-04T20:28:51.673Z,95243.97
2023-03-04T20:31:22.008Z,95239.75
2023-03-04T20:33:50.646Z,95246.78
2023-03-04T20:36:22.389Z,95237.41
2023-03-04T20:38:55.856Z,95244.38
2023-03-04T20:41:29.614Z,95246.16
2023-03-04T20:43:57.560Z,95243.97
2023-03-04T20:46:30.142Z,95242.34
2023-03-04T20:48:59.612Z,95242.34
2023-03-04T20:51:29.424Z,95243.13
2023-03-04T20:53:57.408Z,95250.28
2023-03-04T20:56:26.352Z,95249.38
2023-03-04T20:58:56.230Z,95246.50
2023-03-04T21:01:24.868Z,95242.13
2023-03-04T21:03:53.200Z,95241.34
2023-03-04T21:06:21.242Z,95248.13
2023-03-04T21:08:50.517Z,95239.75
2023-03-04T21:11:19.153Z,95238.50
2023-03-04T21:13:53.914Z,95243.66
2023-03-04T21:16:21.847Z,95233.31
2023-03-04T21:18:49.771Z,95236.28
2023-03-04T21:21:25.602Z,95231.88
2023-03-04T21:23:56.426Z,95235.66
2023-03-04T21:26:25.364Z,95240.06
2023-03-04T21:28:54.420Z,95230.66
2023-03-04T21:31:24.528Z,95220.91
2023-03-04T21:33:54.209Z,95216.94
2023-03-04T21:36:22.620Z,95219.31
2023-03-04T21:38:51.242Z,95210.53
2023-03-04T21:41:22.485Z,95215.13
2023-03-04T21:43:51.016Z,95218.50
2023-03-04T21:46:19.680Z,95218.09
2023-03-04T21:48:48.357Z,95218.44
2023-03-04T21:51:17.819Z,95216.84
2023-03-04T21:53:45.827Z,95220.41
2023-03-04T21:56:14.036Z,95210.81
2023-03-04T21:58:43.293Z,95208.38
2023-03-04T22:01:12.178Z,95210.34
2023-03-04T22:03:40.565Z,95203.56
2023-03-04T22:06:10.483Z,95209.09
2023-03-04T22:08:40.052Z,95207.50
2023-03-04T22:11:09.668Z,95203.31
2023-03-04T22:13:38.338Z,95210.47
2023-03-04T22:16:08.166Z,95199.13
2023-03-04T22:18:38.446Z,95200.34
2023-03-04T22:21:09.173Z,95202.75
2023-03-04T22:23:37.336Z,95199.94
2023-03-04T22:26:06.565Z,95203.09
2023-03-04T22:28:35.241Z,95193.09
2023-03-04T22:31:03.181Z,95199.47
2023-03-04T22:33:37.167Z,95197.44
2023-03-04T22:36:07.800Z,95200.19
2023-03-04T22:38:36.131Z,95198.59
2023-03-04T22:41:04.185Z,95194.97
2023-03-04T22:43:32.221Z,95195.34
2023-03-04T22:46:01.760Z,95192.13
2023-03-04T22:48:29.684Z,95187.34
2023-03-04T22:50:58.962Z,95189.31
2023-03-04T22:53:27.069Z,95197.69
2023-03-04T22:55:58.803Z,95190.53
2023-03-04T22:58:26.826Z,95186.59
2023-03-04T23:00:54.723Z,95186.59
2023-03-04T23:03:22.668Z,95186.97
2023-03-04T23:05:50.664Z,95187.72
2023-03-04T23:08:19.879Z,95182.09
2023-03-04T23:10:47.789Z,95174.50
2023-03-04T23:13:16.150Z,95183.25
2023-03-04T23:15:44.041Z,95185.22
2023-03-04T23:18:11.945Z,95185.59
2023-03-04T23:20:42.287Z,95186.22
2023-03-04T23:23:10.356Z,95193.38
2023-03-04T23:25:39.899Z,95193.00
2023-03-04T23:28:07.812Z,95186.03
2023-03-04T23:30:35.813Z,95180.84
2023-03-04T23:33:03.786Z,95186.22
2023-03-04T23:35:31.665Z,95186.97
2023-03-04T23:37:59.597Z,95192.50
2023-03-04T23:40:27.560Z,95184.75
2023-03-04T23:42:57.094Z,95186.25
2023-03-04T23:45:25.006Z,95192.22
2023-03-04T23:47:52.964Z,95189.31
2023-03-04T23:50:21.269Z,95189.13
2023-03-04T23:52:49.760Z,95185.91
2023-03-04T23:55:19.224Z,95189.53
2023-03-04T23:57:48.208Z,95197.31
